Time;durP1;ratioP1;P1;durP2;ratioP2;P2;SDS_P1;SDS_P2;PMS_P1;PMS_P2;Temp;Humidity;BMP_temperature;BMP_pressure;BME280_temperature;BME280_humidity;BME280_pressure;Samples;Min_cycle;Max_cycle;Signal;HPM_P1;HPM_P2
2024/02/05 00:00:57;;;;;;;2.23;1.10;;;24.30;57.40;;;;;;5033628;28;20434;-84
2024/02/05 00:03:25;;;;;;;1.70;1.33;;;24.30;57.50;;;;;;5033828;28;20789;-84
2024/02/05 00:05:51;;;;;;;1.70;1.17;;;24.30;57.50;;;;;;5033619;28;20450;-84
2024/02/05 00:08:18;;;;;;;1.70;1.30;;;24.30;57.50;;;;;;5033526;28;20446;-84
2024/02/05 00:10:46;;;;;;;1.50;1.10;;;24.30;57.50;;;;;;5033696;28;20442;-84
2024/02/05 00:13:13;;;;;;;2.43;1.10;;;24.30;57.50;;;;;;5033472;28;20445;-84
2024/02/05 00:15:41;;;;;;;1.83;1.10;;;24.20;57.50;;;;;;5033374;28;20581;-84
2024/02/05 00:18:08;;;;;;;1.70;1.13;;;24.20;57.50;;;;;;5033300;28;20995;-84
2024/02/05 00:20:35;;;;;;;1.97;1.10;;;24.20;57.50;;;;;;5033625;28;20436;-84
2024/02/05 00:23:01;;;;;;;3.47;1.27;;;24.20;57.40;;;;;;5034180;28;20966;-83
2024/02/05 00:25:29;;;;;;;1.50;1.00;;;24.20;57.50;;;;;;5033618;28;20955;-84
2024/02/05 00:27:56;;;;;;;2.07;1.17;;;24.20;57.50;;;;;;5033085;28;20482;-83
2024/02/05 00:30:23;;;;;;;2.37;1.20;;;24.20;57.50;;;;;;5033443;28;20520;-84
2024/02/05 00:32:52;;;;;;;1.70;1.10;;;24.20;57.50;;;;;;5033502;28;20453;-84
2024/02/05 00:35:19;;;;;;;1.60;1.10;;;24.20;57.50;;;;;;5033401;28;20512;-84
2024/02/05 00:37:45;;;;;;;1.60;1.20;;;24.20;57.50;;;;;;5034475;28;20446;-84
2024/02/05 00:40:13;;;;;;;1.50;1.10;;;24.20;57.50;;;;;;5034410;28;20521;-84
2024/02/05 00:42:39;;;;;;;2.20;1.23;;;24.10;57.40;;;;;;5033521;28;20441;-84
2024/02/05 00:45:07;;;;;;;2.13;1.10;;;24.10;57.50;;;;;;5033347;28;20955;-84
2024/02/05 00:47:34;;;;;;;1.63;1.23;;;24.10;57.50;;;;;;5033261;28;21036;-83
2024/02/05 00:50:02;;;;;;;2.97;1.50;;;24.10;57.50;;;;;;5033538;28;20439;-83
2024/02/05 00:52:29;;;;;;;1.90;1.13;;;24.20;57.50;;;;;;5033652;28;20936;-85
2024/02/05 00:54:56;;;;;;;1.90;1.23;;;24.10;57.50;;;;;;5033127;28;20890;-84
2024/02/05 00:57:26;;;;;;;2.13;1.20;;;24.10;57.50;;;;;;5035936;28;20430;-84
2024/02/05 00:59:53;;;;;;;1.70;1.00;;;24.10;57.50;;;;;;5047751;28;20457;-85
2024/02/05 01:02:20;;;;;;;2.00;1.20;;;24.10;57.50;;;;;;5061206;28;20485;-84
2024/02/05 01:04:47;;;;;;;1.83;1.37;;;24.10;57.50;;;;;;5057297;28;20460;-84
2024/02/05 01:07:16;;;;;;;1.80;1.20;;;24.10;57.50;;;;;;5048922;28;20446;-84
2024/02/05 01:09:43;;;;;;;1.93;1.33;;;24.10;57.50;;;;;;5037531;28;20434;-84
2024/02/05 01:12:10;;;;;;;1.70;1.10;;;24.00;57.50;;;;;;5037420;28;20465;-84
2024/02/05 01:14:37;;;;;;;1.87;1.30;;;24.10;57.50;;;;;;5036968;28;20438;-84
2024/02/05 01:17:05;;;;;;;1.77;1.27;;;24.00;57.50;;;;;;5037042;28;20495;-84
2024/02/05 01:19:33;;;;;;;1.80;1.10;;;24.00;57.50;;;;;;5036942;28;20442;-85
2024/02/05 01:22:00;;;;;;;1.80;1.23;;;24.00;57.50;;;;;;5036881;28;20442;-85
2024/02/05 01:24:28;;;;;;;1.50;0.90;;;24.00;57.50;;;;;;5036838;28;20434;-83
2024/02/05 01:26:54;;;;;;;1.50;1.00;;;24.00;57.50;;;;;;5036670;28;20438;-83
2024/02/05 01:29:21;;;;;;;1.90;1.20;;;24.00;57.50;;;;;;5036656;28;21010;-83
2024/02/05 01:31:49;;;;;;;1.90;1.20;;;24.00;57.50;;;;;;5036677;28;20437;-83
2024/02/05 01:34:15;;;;;;;2.30;1.20;;;24.00;57.60;;;;;;5036483;28;20525;-84
2024/02/05 01:36:42;;;;;;;1.80;1.30;;;24.00;57.60;;;;;;5035984;28;20486;-84
2024/02/05 01:39:10;;;;;;;1.70;1.10;;;24.00;57.60;;;;;;5035593;28;21016;-84
2024/02/05 01:41:38;;;;;;;2.17;1.30;;;24.00;57.60;;;;;;5036042;28;20450;-84
2024/02/05 01:44:06;;;;;;;1.97;1.17;;;24.00;57.60;;;;;;5036750;28;20442;-85
2024/02/05 01:46:35;;;;;;;3.50;1.20;;;23.90;57.50;;;;;;5057327;28;20442;-84
2024/02/05 01:49:06;;;;;;;2.73;1.50;;;23.90;57.60;;;;;;5059522;28;20587;-83
2024/02/05 01:51:39;;;;;;;2.50;1.30;;;23.90;57.60;;;;;;5040242;28;20441;-84
2024/02/05 01:54:06;;;;;;;2.53;1.50;;;23.90;57.60;;;;;;5036262;28;20430;-84
2024/02/05 01:56:34;;;;;;;1.67;1.03;;;23.90;57.70;;;;;;5035962;28;20841;-84
2024/02/05 01:59:03;;;;;;;1.90;1.30;;;23.90;57.60;;;;;;5035966;28;20438;-84
2024/02/05 02:01:32;;;;;;;2.33;1.80;;;23.90;57.60;;;;;;5035992;28;20482;-84
2024/02/05 02:04:02;;;;;;;1.90;1.57;;;24.00;57.70;;;;;;5036032;28;20442;-84
2024/02/05 02:06:29;;;;;;;1.57;1.20;;;23.90;57.60;;;;;;5036042;28;20921;-84
2024/02/05 02:08:57;;;;;;;2.17;1.33;;;24.00;57.60;;;;;;5034795;28;20504;-84
2024/02/05 02:11:25;;;;;;;2.23;1.50;;;24.00;57.60;;;;;;5035576;28;20438;-84
2024/02/05 02:13:51;;;;;;;1.50;0.90;;;23.90;57.50;;;;;;5035655;28;20477;-84
2024/02/05 02:16:25;;;;;;;2.90;1.60;;;24.00;57.60;;;;;;5035283;28;20581;-84
2024/02/05 02:18:53;;;;;;;1.80;1.20;;;24.00;57.50;;;;;;5035581;28;20473;-84
2024/02/05 02:21:21;;;;;;;2.20;1.10;;;23.90;57.50;;;;;;5035905;28;20442;-85
2024/02/05 02:23:49;;;;;;;2.40;1.43;;;24.00;57.50;;;;;;5035638;28;20854;-85
2024/02/05 02:26:16;;;;;;;2.00;1.10;;;24.00;57.50;;;;;;5035107;28;20438;-84
2024/02/05 02:28:43;;;;;;;1.70;1.00;;;24.00;57.60;;;;;;5034797;28;20478;-83
2024/02/05 02:31:10;;;;;;;1.80;1.30;;;24.00;57.50;;;;;;5035118;28;20442;-84
2024/02/05 02:33:46;;;;;;;2.07;1.30;;;24.00;57.50;;;;;;5038349;28;20438;-85
2024/02/05 02:36:18;;;;;;;3.90;1.77;;;24.00;57.50;;;;;;5038778;28;20486;-83
2024/02/05 02:38:49;;;;;;;2.00;1.50;;;24.00;57.50;;;;;;5037876;28;20482;-84
2024/02/05 02:41:20;;;;;;;2.47;1.10;;;24.00;57.50;;;;;;5038330;28;20443;-84
2024/02/05 02:43:52;;;;;;;2.37;1.20;;;24.00;58.10;;;;;;5038225;28;20444;-84
2024/02/05 02:46:19;;;;;;;2.70;1.53;;;24.00;57.50;;;;;;5038197;28;20431;-84
2024/02/05 02:48:47;;;;;;;2.13;1.13;;;24.00;57.50;;;;;;5038332;28;20450;-83
2024/02/05 02:51:13;;;;;;;1.90;1.10;;;24.00;57.50;;;;;;5037430;28;20446;-83
2024/02/05 02:53:40;;;;;;;2.37;1.20;;;24.00;57.50;;;;;;5038003;28;20431;-83
2024/02/05 02:56:10;;;;;;;2.50;1.30;;;24.00;57.40;;;;;;5037963;28;20493;-83
2024/02/05 02:58:36;;;;;;;1.80;1.30;;;24.00;57.50;;;;;;5037762;28;20434;-85
2024/02/05 03:01:04;;;;;;;2.37;1.43;;;24.00;57.40;;;;;;5037819;28;20809;-82
2024/02/05 03:03:31;;;;;;;1.80;1.30;;;24.00;57.40;;;;;;5037347;28;20492;-84
2024/02/05 03:05:58;;;;;;;1.90;1.30;;;24.00;57.40;;;;;;5036131;28;20445;-83
2024/02/05 03:08:25;;;;;;;1.80;1.33;;;24.00;57.50;;;;;;5034783;28;20434;-83
2024/02/05 03:10:52;;;;;;;2.07;1.50;;;24.00;57.40;;;;;;5034445;28;20442;-84
2024/02/05 03:13:20;;;;;;;1.60;1.13;;;24.00;57.40;;;;;;5035659;28;20437;-84
2024/02/05 03:15:47;;;;;;;1.80;1.43;;;24.00;57.40;;;;;;5034459;28;20482;-83
2024/02/05 03:18:14;;;;;;;2.13;1.30;;;24.00;57.40;;;;;;5034575;28;20815;-83
2024/02/05 03:20:42;;;;;;;2.30;1.67;;;24.00;57.40;;;;;;5033853;28;20850;-84
2024/02/05 03:23:10;;;;;;;1.80;1.30;;;24.00;57.40;;;;;;5034285;28;20823;-85
2024/02/05 03:25:38;;;;;;;1.60;1.13;;;24.00;57.40;;;;;;5034436;28;20430;-84
2024/02/05 03:28:07;;;;;;;2.27;1.40;;;24.00;57.40;;;;;;5033801;28;20466;-84
2024/02/05 03:30:36;;;;;;;1.60;1.10;;;24.00;57.30;;;;;;5034451;28;20504;-84
2024/02/05 03:33:04;;;;;;;2.70;1.43;;;23.90;57.30;;;;;;5033780;28;20778;-84
2024/02/05 03:35:32;;;;;;;1.70;1.10;;;24.00;57.90;;;;;;5033491;28;20486;-84
2024/02/05 03:37:59;;;;;;;1.80;1.30;;;24.00;57.30;;;;;;5032756;28;20450;-83
2024/02/05 03:40:26;;;;;;;2.43;1.40;;;24.00;57.40;;;;;;5033589;28;20442;-84
2024/02/05 03:42:54;;;;;;;2.00;1.23;;;24.00;57.30;;;;;;5034362;28;20518;-83
2024/02/05 03:45:21;;;;;;;2.67;1.27;;;24.00;57.40;;;;;;5033790;28;20434;-83
2024/02/05 03:47:49;;;;;;;4.63;1.20;;;24.00;57.30;;;;;;5033638;28;20454;-84
2024/02/05 03:50:17;;;;;;;2.27;1.20;;;24.00;57.30;;;;;;5033619;28;20929;-83
2024/02/05 03:52:45;;;;;;;2.03;1.50;;;24.00;57.30;;;;;;5033590;28;20934;-84
2024/02/05 03:55:13;;;;;;;2.40;1.30;;;24.00;57.30;;;;;;5033610;28;20442;-83
2024/02/05 03:57:41;;;;;;;3.30;1.93;;;24.00;57.30;;;;;;5038296;28;20490;-84
2024/02/05 04:00:10;;;;;;;2.40;1.50;;;24.00;57.30;;;;;;5038133;28;20443;-84
2024/02/05 04:02:38;;;;;;;2.27;1.47;;;24.00;57.30;;;;;;5037937;28;20469;-84
2024/02/05 04:05:07;;;;;;;1.60;1.20;;;24.00;57.30;;;;;;5039958;28;20446;-84
2024/02/05 04:07:37;;;;;;;2.87;1.30;;;24.00;57.30;;;;;;5038737;28;20448;-83
2024/02/05 04:10:04;;;;;;;1.80;1.50;;;24.00;57.30;;;;;;5037757;28;20435;-83
2024/02/05 04:12:31;;;;;;;2.07;1.47;;;24.00;57.30;;;;;;5034553;28;20897;-84
2024/02/05 04:14:58;;;;;;;2.73;1.03;;;24.00;57.30;;;;;;5033581;28;20442;-83
2024/02/05 04:17:25;;;;;;;2.00;1.50;;;24.00;57.30;;;;;;5033527;28;20838;-84
2024/02/05 04:19:52;;;;;;;2.57;1.50;;;24.00;57.30;;;;;;5033904;28;20442;-84
2024/02/05 04:22:20;;;;;;;2.10;1.43;;;24.00;57.30;;;;;;5033163;28;20442;-84
2024/02/05 04:24:47;;;;;;;1.90;1.20;;;24.00;57.30;;;;;;5033494;28;20442;-85
2024/02/05 04:27:14;;;;;;;2.30;1.33;;;24.00;57.30;;;;;;5032865;28;20873;-85
2024/02/05 04:29:41;;;;;;;3.80;1.80;;;24.10;57.30;;;;;;5033298;28;20951;-85
2024/02/05 04:32:08;;;;;;;2.20;1.30;;;24.00;57.30;;;;;;5035527;28;20500;-85
2024/02/05 04:34:35;;;;;;;2.20;1.50;;;24.00;57.30;;;;;;5037209;28;20785;-85
2024/02/05 04:37:01;;;;;;;3.83;2.23;;;24.00;57.30;;;;;;5036555;28;20486;-85
2024/02/05 04:39:30;;;;;;;1.87;1.37;;;24.00;57.30;;;;;;5036945;28;20442;-85
2024/02/05 04:41:57;;;;;;;2.57;1.80;;;24.00;57.30;;;;;;5036893;28;20454;-85
2024/02/05 04:44:23;;;;;;;2.40;1.43;;;24.00;57.30;;;;;;5037670;28;20445;-85
2024/02/05 04:46:50;;;;;;;2.90;1.40;;;24.10;57.40;;;;;;5036894;28;20434;-85
2024/02/05 04:49:18;;;;;;;1.80;1.40;;;23.90;57.20;;;;;;5036916;28;20470;-85
2024/02/05 04:51:48;;;;;;;2.00;1.10;;;24.00;57.30;;;;;;5036843;28;20773;-85
2024/02/05 04:54:15;;;;;;;2.57;1.33;;;24.00;57.30;;;;;;5036933;28;20803;-86
2024/02/05 04:56:43;;;;;;;1.90;1.40;;;24.00;57.30;;;;;;5036807;28;20489;-85
2024/02/05 04:59:10;;;;;;;2.63;1.30;;;24.00;57.30;;;;;;5041944;28;20426;-85
2024/02/05 05:01:36;;;;;;;2.27;1.23;;;24.00;57.30;;;;;;5058531;28;20442;-85
2024/02/05 05:04:03;;;;;;;2.13;1.80;;;24.00;57.30;;;;;;5060773;28;20446;-86
2024/02/05 05:06:30;;;;;;;1.80;1.37;;;24.00;57.30;;;;;;5036942;28;20448;-85
2024/02/05 05:08:57;;;;;;;3.33;1.53;;;24.00;57.30;;;;;;5037124;28;20445;-85
2024/02/05 05:11:24;;;;;;;1.70;1.30;;;24.00;57.30;;;;;;5036818;28;20980;-85
2024/02/05 05:13:52;;;;;;;2.30;1.33;;;24.00;57.30;;;;;;5037244;28;20434;-85
2024/02/05 05:16:19;;;;;;;2.10;1.30;;;24.00;57.30;;;;;;5036775;28;20488;-86
2024/02/05 05:18:46;;;;;;;2.97;1.60;;;24.00;57.30;;;;;;5036903;28;20916;-85
2024/02/05 05:21:13;;;;;;;2.53;1.30;;;24.00;57.80;;;;;;5036656;28;20441;-85
2024/02/05 05:23:42;;;;;;;2.57;2.10;;;24.00;57.20;;;;;;5036913;28;20434;-85
2024/02/05 05:26:09;;;;;;;2.23;1.20;;;24.00;57.20;;;;;;5036556;28;20921;-85
2024/02/05 05:28:38;;;;;;;2.97;1.60;;;24.00;57.20;;;;;;5036320;28;20478;-91
2024/02/05 05:31:06;;;;;;;2.80;1.57;;;24.10;57.20;;;;;;5047770;28;20449;-89
2024/02/05 05:33:33;;;;;;;3.10;1.80;;;24.10;57.20;;;;;;5060930;28;20477;-84
2024/02/05 05:35:59;;;;;;;2.83;1.50;;;24.00;57.10;;;;;;5058726;28;20545;-85
2024/02/05 05:38:27;;;;;;;2.40;1.57;;;24.10;57.10;;;;;;5046833;28;20446;-85
2024/02/05 05:40:54;;;;;;;1.73;1.23;;;24.10;57.10;;;;;;5037066;28;20439;-85
2024/02/05 05:43:21;;;;;;;1.97;1.50;;;24.10;57.10;;;;;;5036578;28;20438;-84
2024/02/05 05:45:48;;;;;;;2.60;1.50;;;24.10;57.10;;;;;;5039338;28;20814;-92
2024/02/05 05:48:16;;;;;;;3.33;1.70;;;24.10;57.10;;;;;;5036995;28;20501;-92
2024/02/05 05:50:43;;;;;;;3.43;1.47;;;24.10;57.00;;;;;;5037614;28;20803;-90
2024/02/05 05:53:09;;;;;;;3.80;2.00;;;24.10;57.00;;;;;;5036939;28;20520;-92
2024/02/05 05:55:36;;;;;;;2.00;1.40;;;24.10;57.00;;;;;;5036864;28;20453;-90
2024/02/05 05:58:03;;;;;;;3.10;1.67;;;24.10;57.00;;;;;;5036353;28;20814;-92
2024/02/05 06:00:30;;;;;;;2.77;1.33;;;24.10;57.00;;;;;;5036809;28;21128;-91
2024/02/05 06:02:56;;;;;;;2.07;1.40;;;24.10;57.00;;;;;;5035470;28;20449;-84
2024/02/05 06:05:25;;;;;;;3.50;1.53;;;24.10;57.00;;;;;;5035900;28;20430;-84
2024/02/05 06:07:52;;;;;;;4.10;1.50;;;24.10;57.00;;;;;;5035649;28;20561;-84
2024/02/05 06:10:19;;;;;;;2.23;1.77;;;24.10;57.00;;;;;;5029767;28;20430;-86
2024/02/05 06:12:46;;;;;;;2.80;1.53;;;24.20;57.00;;;;;;5036292;28;20446;-85
2024/02/05 06:15:14;;;;;;;2.40;1.50;;;24.10;56.90;;;;;;5036004;28;20448;-86
2024/02/05 06:17:41;;;;;;;2.20;1.43;;;24.10;57.00;;;;;;5033767;28;20910;-84
2024/02/05 06:20:08;;;;;;;2.63;1.40;;;24.10;57.00;;;;;;5039258;28;20438;-85
2024/02/05 06:22:37;;;;;;;2.40;1.63;;;24.10;57.00;;;;;;5039652;28;20448;-85
2024/02/05 06:25:04;;;;;;;2.07;1.50;;;24.20;57.00;;;;;;5039675;28;20532;-85
2024/02/05 06:27:31;;;;;;;3.73;1.77;;;24.10;56.90;;;;;;5036853;28;20474;-86
2024/02/05 06:29:58;;;;;;;3.33;1.57;;;24.20;57.00;;;;;;5036424;28;20448;-94
2024/02/05 06:32:25;;;;;;;2.57;1.40;;;24.10;56.90;;;;;;5036668;28;20948;-85
2024/02/05 06:34:52;;;;;;;2.37;1.60;;;24.10;57.00;;;;;;5036179;28;20864;-85
2024/02/05 06:37:18;;;;;;;2.10;1.30;;;24.20;57.00;;;;;;5035416;28;20494;-84
2024/02/05 06:39:47;;;;;;;2.97;1.47;;;24.20;57.00;;;;;;5040263;28;20469;-85
2024/02/05 06:42:13;;;;;;;3.20;1.70;;;24.20;57.00;;;;;;5037351;28;20541;-85
2024/02/05 06:44:42;;;;;;;2.63;1.47;;;24.30;57.10;;;;;;5036024;28;20448;-85
2024/02/05 06:47:09;;;;;;;2.50;1.57;;;24.20;57.00;;;;;;5034655;28;20454;-84
2024/02/05 06:49:38;;;;;;;3.73;1.70;;;24.20;57.00;;;;;;5034413;28;20445;-85
2024/02/05 06:52:05;;;;;;;2.30;1.70;;;24.20;57.10;;;;;;5035563;28;20929;-93
2024/02/05 06:54:32;;;;;;;2.23;1.80;;;24.20;57.10;;;;;;5034222;28;20438;-84
2024/02/05 06:57:01;;;;;;;2.60;1.60;;;24.10;57.00;;;;;;5034887;28;20889;-84
2024/02/05 06:59:28;;;;;;;3.43;1.70;;;24.20;57.10;;;;;;5034752;28;20509;-84
2024/02/05 07:01:55;;;;;;;2.57;1.60;;;24.20;57.10;;;;;;5034692;28;20430;-84
2024/02/05 07:04:21;;;;;;;2.97;1.37;;;24.20;57.70;;;;;;5034896;28;20438;-84
2024/02/05 07:06:48;;;;;;;3.80;1.57;;;24.20;57.10;;;;;;5035028;28;20442;-84
2024/02/05 07:09:15;;;;;;;3.90;1.80;;;24.20;57.10;;;;;;5034923;28;20476;-84
2024/02/05 07:11:43;;;;;;;2.27;1.50;;;24.30;57.10;;;;;;5034838;28;20449;-84
2024/02/05 07:14:11;;;;;;;4.20;1.67;;;24.20;57.10;;;;;;5033830;28;20477;-88
2024/02/05 07:16:37;;;;;;;4.87;1.70;;;24.20;57.10;;;;;;5034416;28;20452;-83
2024/02/05 07:19:04;;;;;;;2.90;1.93;;;24.20;57.10;;;;;;5034359;28;20462;-84
2024/02/05 07:21:31;;;;;;;5.33;2.20;;;24.20;57.10;;;;;;5034434;28;20431;-84
2024/02/05 07:23:58;;;;;;;3.40;1.60;;;24.20;57.10;;;;;;5034485;28;20434;-84
2024/02/05 07:26:24;;;;;;;3.50;1.33;;;24.20;57.10;;;;;;5034194;28;20439;-84
2024/02/05 07:28:51;;;;;;;2.47;1.63;;;24.20;57.10;;;;;;5034811;28;20470;-90
2024/02/05 07:31:19;;;;;;;5.20;1.70;;;24.20;57.20;;;;;;5035352;28;20430;-85
2024/02/05 07:33:46;;;;;;;2.10;1.47;;;24.30;57.30;;;;;;5035365;28;20440;-90
2024/02/05 07:36:13;;;;;;;3.30;2.07;;;24.20;57.20;;;;;;5035429;28;20533;-93
2024/02/05 07:38:39;;;;;;;1.90;1.47;;;24.20;57.20;;;;;;5033931;28;20489;-80
2024/02/05 07:41:06;;;;;;;5.17;2.30;;;24.20;57.30;;;;;;5032988;28;20453;-79
2024/02/05 07:43:33;;;;;;;3.47;1.70;;;24.20;56.90;;;;;;5031752;28;20438;-79
2024/02/05 07:46:00;;;;;;;2.03;1.57;;;24.20;56.80;;;;;;5032678;28;20441;-80
2024/02/05 07:48:29;;;;;;;3.53;1.90;;;24.10;56.90;;;;;;5033307;28;20858;-80
2024/02/05 07:50:56;;;;;;;2.17;1.40;;;24.10;57.00;;;;;;5033269;28;20453;-79
2024/02/05 07:53:23;;;;;;;5.87;2.77;;;24.10;57.00;;;;;;5033365;28;20443;-80
2024/02/05 07:55:51;;;;;;;4.03;1.50;;;24.10;57.00;;;;;;5033168;28;20430;-80
2024/02/05 07:58:18;;;;;;;3.80;1.80;;;24.10;57.10;;;;;;5033148;28;20486;-80
2024/02/05 08:00:45;;;;;;;2.60;1.53;;;24.10;57.00;;;;;;5033626;28;20446;-80
2024/02/05 08:03:11;;;;;;;2.73;1.50;;;24.10;57.10;;;;;;5033152;28;20433;-80
2024/02/05 08:05:40;;;;;;;1.93;1.40;;;24.10;57.10;;;;;;5033339;28;20485;-80
2024/02/05 08:08:07;;;;;;;3.77;1.77;;;24.00;57.00;;;;;;5033113;28;20763;-79
2024/02/05 08:10:36;;;;;;;2.27;1.37;;;24.00;57.00;;;;;;5032363;28;20446;-80
2024/02/05 08:13:03;;;;;;;12.90;1.93;;;24.00;57.00;;;;;;5032770;28;20450;-80
2024/02/05 08:15:30;;;;;;;2.50;1.53;;;24.10;57.00;;;;;;5032374;28;20442;-85
2024/02/05 08:17:57;;;;;;;2.90;1.67;;;24.10;57.10;;;;;;5041422;28;20497;-86
2024/02/05 08:20:23;;;;;;;3.67;1.40;;;24.10;57.10;;;;;;5057398;28;20430;-86
2024/02/05 08:22:53;;;;;;;4.27;2.20;;;24.10;57.20;;;;;;5053914;28;20435;-80
2024/02/05 08:25:19;;;;;;;7.87;2.97;;;24.10;57.30;;;;;;5033326;28;20430;-79
2024/02/05 08:27:46;;;;;;;3.93;1.90;;;24.10;56.90;;;;;;5032775;28;20478;-87
2024/02/05 08:30:14;;;;;;;2.63;1.40;;;24.00;56.70;;;;;;5032927;28;20512;-87
2024/02/05 08:32:41;;;;;;;6.60;1.70;;;24.00;56.90;;;;;;5033074;28;20921;-83
2024/02/05 08:35:08;;;;;;;6.43;2.27;;;24.10;57.60;;;;;;5033028;28;20449;-84
2024/02/05 08:37:35;;;;;;;5.27;1.47;;;24.10;57.10;;;;;;5032292;28;20486;-83
2024/02/05 08:40:04;;;;;;;2.50;1.50;;;24.10;57.20;;;;;;5030875;28;20445;-83
2024/02/05 08:42:33;;;;;;;5.03;1.77;;;24.10;57.10;;;;;;5032636;28;20445;-83
2024/02/05 08:45:00;;;;;;;7.63;2.03;;;24.10;57.10;;;;;;5034187;28;20517;-84
2024/02/05 08:47:26;;;;;;;2.87;1.60;;;24.20;57.10;;;;;;5033773;28;20460;-83
2024/02/05 08:49:53;;;;;;;3.67;1.47;;;24.20;57.00;;;;;;5033552;28;20441;-83
2024/02/05 08:52:21;;;;;;;5.03;1.53;;;24.20;57.00;;;;;;5033221;28;20456;-83
2024/02/05 08:54:48;;;;;;;4.40;1.67;;;24.20;57.00;;;;;;5033058;28;20435;-83
2024/02/05 08:57:16;;;;;;;4.17;1.53;;;24.20;57.00;;;;;;5033086;28;20484;-83
2024/02/05 08:59:43;;;;;;;4.33;2.07;;;24.20;56.90;;;;;;5032947;28;20926;-84
2024/02/05 09:02:10;;;;;;;2.50;1.30;;;24.20;56.90;;;;;;5032763;28;20951;-84
2024/02/05 09:04:37;;;;;;;6.37;2.10;;;24.30;57.00;;;;;;5032780;28;20869;-78
2024/02/05 09:07:04;;;;;;;2.30;1.70;;;24.20;56.90;;;;;;5032957;28;20444;-84
2024/02/05 09:09:31;;;;;;;2.93;1.60;;;24.20;56.80;;;;;;5032794;28;20934;-83
2024/02/05 09:11:59;;;;;;;6.70;1.90;;;24.20;56.90;;;;;;5033378;28;20511;-83
2024/02/05 09:14:27;;;;;;;2.90;1.67;;;24.20;56.90;;;;;;5033178;28;20991;-84
2024/02/05 09:16:53;;;;;;;7.40;1.73;;;24.20;56.90;;;;;;5033285;28;20469;-83
2024/02/05 09:19:20;;;;;;;8.33;1.57;;;24.20;56.90;;;;;;5037017;28;20503;-84
2024/02/05 09:21:47;;;;;;;5.23;2.00;;;24.20;57.00;;;;;;5036630;28;20440;-84
2024/02/05 09:24:14;;;;;;;4.80;2.13;;;24.20;57.20;;;;;;5036924;28;20444;-84
2024/02/05 09:26:41;;;;;;;3.10;2.03;;;24.20;57.70;;;;;;5036537;28;20445;-92
2024/02/05 09:29:07;;;;;;;4.17;2.80;;;24.20;57.90;;;;;;5036363;28;20476;-84
2024/02/05 09:31:36;;;;;;;4.30;2.10;;;24.20;58.00;;;;;;5036732;28;20433;-84
2024/02/05 09:34:02;;;;;;;4.00;2.33;;;24.20;58.20;;;;;;5037865;28;20438;-85
2024/02/05 09:36:29;;;;;;;6.20;2.20;;;24.20;58.40;;;;;;5036033;28;20446;-80
2024/02/05 09:38:56;;;;;;;7.30;2.00;;;24.20;58.50;;;;;;5035162;28;20492;-80
2024/02/05 09:41:31;;;;;;;4.20;2.07;;;24.20;57.60;;;;;;5036226;28;20439;-87
2024/02/05 09:43:58;;;;;;;2.17;1.70;;;24.20;57.70;;;;;;5036627;28;20460;-84
2024/02/05 09:46:26;;;;;;;5.17;2.33;;;24.20;58.20;;;;;;5036036;28;20434;-84
2024/02/05 09:48:56;;;;;;;3.30;2.10;;;24.20;58.40;;;;;;5035471;28;20458;-84
2024/02/05 09:51:23;;;;;;;2.23;1.80;;;24.20;58.40;;;;;;5036487;28;20446;-83
2024/02/05 09:53:51;;;;;;;5.70;2.03;;;24.20;58.40;;;;;;5035778;28;20435;-83
2024/02/05 09:56:20;;;;;;;3.20;1.87;;;24.20;58.30;;;;;;5036693;28;20449;-83
2024/02/05 09:58:47;;;;;;;2.30;1.80;;;24.30;58.20;;;;;;5036629;28;20489;-84
2024/02/05 10:01:16;;;;;;;3.33;2.03;;;24.30;58.10;;;;;;5036820;28;20435;-83
2024/02/05 10:03:44;;;;;;;4.77;2.57;;;24.30;58.00;;;;;;5035741;28;20927;-83
2024/02/05 10:06:16;;;;;;;5.33;2.10;;;24.40;58.00;;;;;;5035760;28;20440;-83
2024/02/05 10:08:44;;;;;;;6.00;2.40;;;24.40;57.90;;;;;;5035810;28;20454;-85
2024/02/05 10:11:13;;;;;;;5.50;1.97;;;24.40;57.70;;;;;;5035647;28;20951;-84
2024/02/05 10:13:39;;;;;;;3.27;1.70;;;24.50;57.80;;;;;;5035608;28;20885;-84
2024/02/05 10:16:06;;;;;;;14.23;2.43;;;24.50;57.70;;;;;;5035571;28;20443;-84
2024/02/05 10:18:33;;;;;;;3.87;2.30;;;24.50;57.60;;;;;;5035322;28;20550;-84
2024/02/05 10:21:03;;;;;;;10.50;2.60;;;24.50;57.70;;;;;;5035500;28;20801;-84
2024/02/05 10:23:31;;;;;;;10.57;2.10;;;24.60;57.70;;;;;;5035375;28;20806;-84
2024/02/05 10:26:01;;;;;;;6.93;1.53;;;24.50;57.60;;;;;;5035757;28;20445;-87
2024/02/05 10:28:29;;;;;;;9.30;2.60;;;24.50;57.60;;;;;;5034697;28;20470;-84
2024/02/05 10:31:04;;;;;;;6.43;2.03;;;24.50;57.60;;;;;;5035048;28;20509;-85
2024/02/05 10:33:31;;;;;;;4.80;1.57;;;24.50;57.60;;;;;;5035461;28;20438;-84
2024/02/05 10:35:58;;;;;;;4.67;1.93;;;24.50;57.50;;;;;;5035573;28;20453;-89
2024/02/05 10:38:26;;;;;;;2.90;1.80;;;24.50;57.50;;;;;;5035146;28;20996;-85
2024/02/05 10:40:55;;;;;;;4.27;2.00;;;24.50;57.50;;;;;;5035022;28;20787;-84
2024/02/05 10:43:22;;;;;;;5.60;1.70;;;24.50;57.60;;;;;;5035375;28;20441;-84
2024/02/05 10:45:48;;;;;;;3.57;1.63;;;24.50;57.60;;;;;;5035264;28;20473;-84
2024/02/05 10:48:15;;;;;;;2.77;1.77;;;24.50;57.60;;;;;;5034992;28;20458;-84
2024/02/05 10:50:44;;;;;;;6.50;2.13;;;24.50;57.60;;;;;;5034778;28;20434;-85
2024/02/05 10:53:12;;;;;;;7.10;2.00;;;24.40;57.50;;;;;;5034780;28;20442;-84
2024/02/05 10:55:40;;;;;;;6.07;1.90;;;24.50;57.50;;;;;;5034660;28;20444;-84
2024/02/05 10:58:09;;;;;;;2.90;1.57;;;24.50;57.50;;;;;;5034759;28;20494;-83
2024/02/05 11:00:35;;;;;;;5.33;2.23;;;24.50;57.50;;;;;;5035055;28;20926;-84
2024/02/05 11:06:25;;;;;;;3.57;1.40;;;24.50;57.50;;;;;;5035154;28;20413;-82
2024/02/05 11:08:53;;;;;;;4.00;1.80;;;24.50;57.60;;;;;;5034357;28;20435;-83
2024/02/05 11:11:20;;;;;;;5.00;1.77;;;24.50;57.50;;;;;;5034712;28;20529;-83
2024/02/05 11:13:53;;;;;;;4.07;1.50;;;24.40;57.50;;;;;;5017178;28;20442;-92
2024/02/05 11:16:21;;;;;;;3.30;1.93;;;24.40;57.60;;;;;;5034524;28;20509;-83
2024/02/05 11:18:52;;;;;;;4.60;2.20;;;24.40;57.60;;;;;;5034595;28;20841;-84
2024/02/05 11:21:25;;;;;;;5.43;1.70;;;24.40;57.50;;;;;;5034318;28;20442;-83
2024/02/05 11:23:53;;;;;;;4.60;1.40;;;24.40;57.50;;;;;;5033972;28;20453;-84
2024/02/05 11:26:20;;;;;;;3.90;1.40;;;24.40;57.60;;;;;;5034125;28;21134;-83
2024/02/05 11:28:53;;;;;;;5.37;1.87;;;24.40;57.60;;;;;;5034069;28;20470;-84
2024/02/05 11:31:24;;;;;;;3.60;1.70;;;24.40;57.70;;;;;;5034689;28;20445;-84
2024/02/05 11:33:57;;;;;;;7.17;1.67;;;24.50;57.70;;;;;;5034211;28;20794;-83
2024/02/05 11:36:24;;;;;;;3.60;1.77;;;24.40;57.60;;;;;;5034045;28;20929;-83
2024/02/05 11:38:50;;;;;;;5.90;1.87;;;24.40;57.60;;;;;;5034002;28;21470;-83
2024/02/05 11:41:22;;;;;;;3.03;1.77;;;24.60;57.80;;;;;;5033825;28;20449;-84
2024/02/05 11:43:49;;;;;;;2.30;1.60;;;24.50;57.60;;;;;;5056446;28;20442;-84
2024/02/05 11:46:17;;;;;;;4.43;1.40;;;24.50;57.60;;;;;;5057594;28;20474;-84
2024/02/05 11:48:44;;;;;;;2.30;1.50;;;24.50;57.60;;;;;;5042051;28;20957;-84
2024/02/05 11:51:12;;;;;;;3.60;1.60;;;24.50;57.60;;;;;;5033985;28;20445;-87
2024/02/05 11:53:46;;;;;;;3.27;1.63;;;24.40;57.50;;;;;;5033761;28;20446;-83
2024/02/05 11:56:13;;;;;;;3.40;1.77;;;24.40;57.50;;;;;;5033803;28;20442;-85
2024/02/05 11:58:40;;;;;;;3.80;1.53;;;24.40;58.20;;;;;;5033870;28;20478;-83
2024/02/05 12:01:09;;;;;;;5.43;1.53;;;24.40;57.60;;;;;;5033896;28;20808;-84
2024/02/05 12:03:38;;;;;;;3.43;2.00;;;24.50;57.60;;;;;;5033528;28;20446;-84
2024/02/05 12:06:06;;;;;;;2.27;1.47;;;24.40;57.50;;;;;;5033652;28;20445;-83
2024/02/05 12:08:33;;;;;;;4.10;1.57;;;24.50;57.60;;;;;;5033753;28;20448;-84
2024/02/05 12:11:00;;;;;;;4.10;1.60;;;24.50;57.50;;;;;;5033832;28;20442;-84
2024/02/05 12:13:27;;;;;;;2.97;1.67;;;24.50;57.50;;;;;;5033836;28;20441;-86
2024/02/05 12:15:54;;;;;;;2.23;1.30;;;24.40;57.40;;;;;;5033698;28;20508;-84
2024/02/05 12:18:21;;;;;;;2.90;1.53;;;24.40;57.50;;;;;;5033299;28;20486;-85
2024/02/05 12:20:57;;;;;;;7.03;2.20;;;24.40;57.50;;;;;;5033827;28;20446;-84
2024/02/05 12:23:24;;;;;;;5.50;2.33;;;24.50;57.60;;;;;;5033210;28;20913;-84
2024/02/05 12:25:51;;;;;;;3.40;1.60;;;24.40;57.50;;;;;;5033856;28;20442;-85
2024/02/05 12:28:18;;;;;;;5.27;2.00;;;24.40;57.60;;;;;;5020389;28;20479;-85
2024/02/05 12:30:45;;;;;;;2.77;1.53;;;24.40;57.60;;;;;;5013851;28;20953;-84
2024/02/05 12:33:14;;;;;;;3.23;1.50;;;24.40;57.60;;;;;;5013965;28;20461;-85
2024/02/05 12:35:41;;;;;;;3.87;2.17;;;24.50;57.70;;;;;;5013784;28;20530;-84
2024/02/05 12:38:10;;;;;;;2.77;1.70;;;24.40;57.60;;;;;;5013470;28;20922;-85
2024/02/05 12:40:37;;;;;;;2.77;1.53;;;24.50;57.70;;;;;;5013907;28;20522;-94
2024/02/05 12:43:04;;;;;;;3.30;1.67;;;24.40;57.60;;;;;;5013648;28;20443;-84
2024/02/05 12:45:31;;;;;;;3.40;1.67;;;24.50;57.70;;;;;;5013541;28;20537;-85
2024/02/05 12:47:59;;;;;;;3.40;1.60;;;24.50;57.70;;;;;;5013674;28;20521;-85
2024/02/05 12:50:27;;;;;;;2.90;1.53;;;24.50;57.70;;;;;;5014223;28;20477;-86